KCNW/CNW METAR and TAF weather

Enter ICAO airport designator
Station Type Date Time Source
KCNW METAR 2020/02/24 23:55 UTC NOAA

KCNW 242355Z 33007KT 10SM SKC 21/04 A2977


Station Type Date Time Source
KCNW Decoded METAR 2020/02/24 23:55 UTC NOAA

Station name not available
Feb 24, 2020 - 06:55 PM EST / 2020.02.24 2355 UTC
Wind: from the NNW (330 degrees) at 8 MPH (7 KT):0
Visibility: 10 mile(s):0
Sky conditions: clear
Temperature: 69 F (21 C)
Dew Point: 39 F (4 C)
Relative Humidity: 32%
Pressure (altimeter): 29.77 in. Hg (1008 hPa)
ob: KCNW 242355Z 33007KT 10SM SKC 21/04 A2977
cycle: 0

Station Type Date Time Source
KCNW TAF UTC NOAA

Error!

Example: see airport list